Time;durP1;ratioP1;P1;durP2;ratioP2;P2;SDS_P1;SDS_P2;PMS_P1;PMS_P2;Temp;Humidity;BMP_temperature;BMP_pressure;BME280_temperature;BME280_humidity;BME280_pressure;Samples;Min_cycle;Max_cycle;Signal;HPM_P1;HPM_P2
2022/02/15 00:00:31;;;;;;;31.30;18.52;;;205.00;2252.80;;;;;;4937390;29;20470;-60
2022/02/15 00:02:57;;;;;;;33.58;19.92;;;205.00;2252.80;;;;;;4937743;29;20036;-64
2022/02/15 00:05:23;;;;;;;31.73;19.30;;;205.10;2252.80;;;;;;4937563;29;20098;-64
2022/02/15 00:07:49;;;;;;;34.20;20.20;;;205.00;2252.80;;;;;;4937276;29;20385;-64
2022/02/15 00:10:15;;;;;;;36.75;20.63;;;205.00;2252.80;;;;;;4937380;29;20068;-64
2022/02/15 00:12:41;;;;;;;43.33;22.48;;;205.00;2252.80;;;;;;4939184;29;20031;-62
2022/02/15 00:15:08;;;;;;;49.08;24.20;;;205.00;2252.80;;;;;;4938163;29;20378;-62
2022/02/15 00:17:35;;;;;;;28.30;16.83;;;205.10;2252.80;;;;;;4921317;29;20028;-62
2022/02/15 00:20:01;;;;;;;24.30;15.07;;;204.90;2252.80;;;;;;4938275;29;20038;-61
2022/02/15 00:22:27;;;;;;;24.90;15.57;;;204.90;2252.80;;;;;;4937973;29;20436;-59
2022/02/15 00:24:53;;;;;;;22.65;15.07;;;204.80;2252.80;;;;;;4938021;29;20027;-62
2022/02/15 00:27:18;;;;;;;26.73;15.73;;;204.80;2252.80;;;;;;4935282;29;20020;-59
2022/02/15 00:29:44;;;;;;;24.67;13.95;;;204.80;2252.80;;;;;;4920148;29;20039;-63
2022/02/15 00:32:10;;;;;;;20.85;13.32;;;180.10;2252.80;;;;;;4938054;29;20055;-57
2022/02/15 00:34:35;;;;;;;20.00;13.35;;;180.10;2252.80;;;;;;4917739;29;20154;-59
2022/02/15 00:37:02;;;;;;;22.77;13.27;;;204.80;2252.80;;;;;;4937070;29;20032;-62
2022/02/15 00:39:28;;;;;;;24.23;14.25;;;204.80;2252.80;;;;;;4937937;29;20024;-61
2022/02/15 00:41:54;;;;;;;23.02;13.55;;;204.90;2252.80;;;;;;4937794;29;20103;-58
2022/02/15 00:44:20;;;;;;;18.63;11.38;;;204.90;2252.80;;;;;;4937952;29;20422;-60
2022/02/15 00:46:46;;;;;;;21.35;12.60;;;205.00;2252.80;;;;;;4917509;29;20040;-60
2022/02/15 00:49:12;;;;;;;19.92;12.90;;;205.00;2252.80;;;;;;4936725;29;20387;-59
2022/02/15 00:51:38;;;;;;;19.65;12.43;;;205.10;2252.80;;;;;;4937420;29;20023;-63
2022/02/15 00:54:04;;;;;;;25.27;12.85;;;205.10;2252.80;;;;;;4937328;29;20412;-61
2022/02/15 00:56:30;;;;;;;21.35;11.57;;;205.10;2252.80;;;;;;4937447;29;20032;-59
2022/02/15 00:58:56;;;;;;;20.65;11.80;;;205.10;2252.80;;;;;;4937267;29;20031;-59
2022/02/15 01:01:22;;;;;;;20.67;11.90;;;205.10;2252.80;;;;;;4937294;29;20032;-60
2022/02/15 01:03:48;;;;;;;19.88;11.98;;;205.10;2252.80;;;;;;4937248;29;20020;-58
2022/02/15 01:06:15;;;;;;;23.58;13.10;;;205.20;2252.80;;;;;;4937541;29;20381;-59
2022/02/15 01:08:42;;;;;;;20.27;12.60;;;205.20;2252.80;;;;;;4936762;29;20020;-60
2022/02/15 01:11:09;;;;;;;22.63;12.90;;;205.20;2252.80;;;;;;4936837;29;20048;-58
2022/02/15 01:13:35;;;;;;;45.15;18.65;;;205.30;2252.80;;;;;;4936713;29;20031;-59
2022/02/15 01:16:01;;;;;;;35.85;16.75;;;205.30;2252.80;;;;;;4937542;29;20028;-60
2022/02/15 01:18:28;;;;;;;25.17;13.63;;;205.30;2252.80;;;;;;4937367;29;20042;-63
2022/02/15 01:20:55;;;;;;;18.25;11.73;;;205.30;2252.80;;;;;;4937432;29;20023;-59
2022/02/15 01:23:21;;;;;;;18.33;11.00;;;205.30;2252.80;;;;;;4936240;29;20063;-58
2022/02/15 01:25:47;;;;;;;19.10;10.80;;;205.30;2252.80;;;;;;4936857;29;20036;-59
2022/02/15 01:28:14;;;;;;;17.35;10.80;;;205.30;2252.80;;;;;;4937394;29;20020;-59
2022/02/15 01:30:40;;;;;;;18.73;10.93;;;205.20;2252.80;;;;;;4936553;29;20050;-56
2022/02/15 01:33:06;;;;;;;18.58;11.00;;;205.20;2252.80;;;;;;4937275;29;20070;-59
2022/02/15 01:35:32;;;;;;;18.88;10.82;;;205.20;2252.80;;;;;;4936453;29;20489;-58
2022/02/15 01:37:58;;;;;;;17.65;11.05;;;205.20;2252.80;;;;;;4936551;29;20143;-59
2022/02/15 01:40:24;;;;;;;19.80;11.35;;;205.10;2252.80;;;;;;4936453;29;20031;-57
2022/02/15 01:42:50;;;;;;;18.15;10.73;;;205.10;2252.80;;;;;;4919609;29;20015;-58
2022/02/15 01:45:17;;;;;;;17.23;9.95;;;205.10;2252.80;;;;;;4936609;29;20093;-60
2022/02/15 01:47:45;;;;;;;17.35;10.65;;;205.00;2252.80;;;;;;4933705;29;20019;-58
2022/02/15 01:50:11;;;;;;;16.13;10.65;;;205.00;2252.80;;;;;;4936504;29;20389;-58
2022/02/15 01:52:37;;;;;;;16.65;10.73;;;205.00;2252.80;;;;;;4936027;29;20024;-57
2022/02/15 01:55:06;;;;;;;18.48;10.23;;;205.00;2252.80;;;;;;4934207;29;20043;-55
2022/02/15 01:57:32;;;;;;;18.75;10.70;;;204.90;2252.80;;;;;;4936491;29;20131;-57
2022/02/15 01:59:58;;;;;;;19.35;10.85;;;204.90;2252.80;;;;;;4936472;29;20369;-55
2022/02/15 02:02:28;;;;;;;18.20;11.20;;;204.90;2252.80;;;;;;4936127;29;20027;-60
2022/02/15 02:07:39;;;;;;;;;;;204.90;2252.80;;;;;;4936504;29;20034;-59
2022/02/15 02:10:05;;;;;;;17.60;9.73;;;205.00;2252.80;;;;;;4935838;29;19919;-58
2022/02/15 02:12:32;;;;;;;16.98;11.23;;;204.90;2252.80;;;;;;4935129;29;20035;-55
2022/02/15 02:15:06;;;;;;;18.27;10.65;;;204.90;2252.80;;;;;;4935954;29;20142;-57
2022/02/15 02:17:32;;;;;;;19.65;11.18;;;205.00;2252.80;;;;;;4935177;29;20036;-58
2022/02/15 02:19:58;;;;;;;19.13;10.52;;;205.00;2252.80;;;;;;4935409;29;20032;-58
2022/02/15 02:22:26;;;;;;;15.68;9.65;;;205.00;2252.80;;;;;;4935218;29;20536;-56
2022/02/15 02:24:53;;;;;;;20.10;10.15;;;205.00;2252.80;;;;;;4935825;29;20082;-59
2022/02/15 02:27:26;;;;;;;17.33;10.27;;;205.00;2252.80;;;;;;4935962;29;20040;-56
2022/02/15 02:29:54;;;;;;;17.65;10.65;;;205.00;2252.80;;;;;;4934644;29;20059;-57
2022/02/15 02:32:27;;;;;;;17.80;10.38;;;204.90;2252.80;;;;;;4935796;29;20031;-56
2022/02/15 02:34:54;;;;;;;16.55;9.32;;;204.90;2252.80;;;;;;4935467;29;20039;-58
2022/02/15 02:37:20;;;;;;;14.98;9.93;;;204.80;2252.80;;;;;;4918409;29;20039;-62
2022/02/15 02:39:49;;;;;;;14.43;8.93;;;180.10;2252.80;;;;;;4935892;29;20024;-62
2022/02/15 02:42:19;;;;;;;15.00;9.27;;;204.80;2252.80;;;;;;4935648;29;20031;-58
2022/02/15 02:44:46;;;;;;;14.77;9.07;;;180.10;2252.80;;;;;;4925609;29;20377;-59
2022/02/15 02:47:12;;;;;;;18.65;10.10;;;180.00;2252.80;;;;;;4937335;29;20032;-57
2022/02/15 02:49:38;;;;;;;15.75;9.45;;;180.00;2252.80;;;;;;4937054;29;20524;-59
2022/02/15 02:52:04;;;;;;;16.42;9.70;;;180.10;2252.80;;;;;;4936314;29;20381;-59
2022/02/15 02:54:31;;;;;;;16.45;10.07;;;180.10;2252.80;;;;;;4936502;29;20046;-56
2022/02/15 02:56:59;;;;;;;15.02;9.40;;;180.10;2252.80;;;;;;4936036;29;20039;-58
2022/02/15 02:59:25;;;;;;;15.50;9.50;;;180.10;2252.80;;;;;;4934567;29;20028;-56
2022/02/15 03:01:51;;;;;;;16.25;9.70;;;180.10;2252.80;;;;;;4934397;29;20035;-58
2022/02/15 03:04:17;;;;;;;16.58;8.95;;;180.10;2252.80;;;;;;4935904;29;20039;-55
2022/02/15 03:06:42;;;;;;;18.38;9.95;;;180.00;2252.80;;;;;;4935680;29;20032;-63
2022/02/15 03:09:08;;;;;;;15.85;9.85;;;180.00;2252.80;;;;;;4935276;29;20024;-64
2022/02/15 03:11:34;;;;;;;16.23;9.85;;;180.00;2252.80;;;;;;4935982;29;20051;-59
2022/02/15 03:14:00;;;;;;;15.80;9.20;;;180.00;2252.80;;;;;;4935529;29;20136;-57
2022/02/15 03:16:27;;;;;;;15.88;9.20;;;179.90;2252.80;;;;;;4934824;29;20051;-56
2022/02/15 03:18:54;;;;;;;15.38;9.50;;;179.90;2252.80;;;;;;4934070;29;20107;-62
2022/02/15 03:21:19;;;;;;;18.90;9.45;;;179.90;2252.80;;;;;;4934366;29;20031;-59
2022/02/15 03:23:45;;;;;;;19.00;9.82;;;179.90;2252.80;;;;;;4935480;29;20024;-62
2022/02/15 03:26:12;;;;;;;17.88;9.90;;;179.90;2252.80;;;;;;4934712;29;20070;-59
2022/02/15 03:28:38;;;;;;;15.10;9.68;;;180.00;2252.80;;;;;;4935415;29;20031;-59
2022/02/15 03:31:04;;;;;;;16.65;9.95;;;179.90;2252.80;;;;;;4935310;29;20159;-60
2022/02/15 03:33:31;;;;;;;14.75;9.60;;;179.90;2252.80;;;;;;4934368;29;20035;-57
2022/02/15 03:35:56;;;;;;;14.15;9.00;;;179.80;2252.80;;;;;;4934000;29;20489;-57
2022/02/15 03:38:22;;;;;;;19.25;10.90;;;179.80;2252.80;;;;;;4934797;29;20036;-56
2022/02/15 03:43:32;;;;;;;16.73;10.50;;;179.90;2252.80;;;;;;4934820;29;20031;-56
2022/02/15 03:45:58;;;;;;;19.58;10.38;;;179.90;2252.80;;;;;;4934957;29;20397;-56
2022/02/15 03:48:24;;;;;;;20.42;10.63;;;179.90;2252.80;;;;;;4932443;29;20020;-57
2022/02/15 03:50:50;;;;;;;18.60;10.15;;;179.80;2252.80;;;;;;4935276;29;20031;-56
2022/02/15 03:53:15;;;;;;;18.73;10.60;;;179.80;2252.80;;;;;;4934749;29;20032;-55
2022/02/15 03:55:45;;;;;;;17.88;10.65;;;179.80;2252.80;;;;;;4934575;29;20110;-60
2022/02/15 03:58:11;;;;;;;20.40;11.00;;;179.80;2252.80;;;;;;4934478;29;20083;-59
2022/02/15 04:00:38;;;;;;;19.20;11.32;;;179.70;2252.80;;;;;;4934807;29;20028;-55
2022/02/15 04:03:04;;;;;;;19.27;10.93;;;179.70;2252.80;;;;;;4932183;29;20103;-59
2022/02/15 04:05:30;;;;;;;19.05;10.50;;;179.60;2252.80;;;;;;4934691;29;20034;-55
2022/02/15 04:07:56;;;;;;;18.08;10.65;;;179.60;2252.80;;;;;;4934548;29;20035;-58
2022/02/15 04:10:21;;;;;;;16.70;10.10;;;179.60;2252.80;;;;;;4936591;29;20044;-61
2022/02/15 04:12:48;;;;;;;17.27;10.10;;;179.60;2252.80;;;;;;4938173;29;20031;-57
2022/02/15 04:15:14;;;;;;;16.75;9.95;;;179.60;2252.80;;;;;;4938097;29;20034;-59
2022/02/15 04:17:40;;;;;;;16.30;9.60;;;179.50;2252.80;;;;;;4938262;29;20027;-61
2022/02/15 04:20:07;;;;;;;18.23;10.63;;;179.50;2252.80;;;;;;4938058;29;20473;-63
2022/02/15 04:22:33;;;;;;;18.02;10.00;;;179.40;2252.80;;;;;;4937232;29;20032;-61
2022/02/15 04:25:00;;;;;;;19.67;10.57;;;179.30;2252.80;;;;;;4937691;29;20070;-56
2022/02/15 04:27:26;;;;;;;19.20;11.48;;;179.30;2252.80;;;;;;4937037;29;20449;-59
2022/02/15 04:29:52;;;;;;;18.55;11.05;;;179.20;2252.80;;;;;;4937668;29;20043;-59
2022/02/15 04:32:18;;;;;;;15.23;9.73;;;154.50;2252.80;;;;;;4938866;29;20079;-60
2022/02/15 04:34:44;;;;;;;;;;;154.40;2252.80;;;;;;4921956;29;20107;-62
2022/02/15 04:37:11;;;;;;;16.27;9.77;;;154.10;2252.80;;;;;;4937863;29;20002;-58
2022/02/15 04:39:36;;;;;;;;;;;154.00;2252.80;;;;;;4938426;29;20028;-58
2022/02/15 04:42:02;;;;;;;16.15;9.68;;;153.80;2252.80;;;;;;4937156;29;19919;-63
2022/02/15 04:44:28;;;;;;;;;;;153.80;2252.80;;;;;;4938073;29;20036;-61
2022/02/15 04:46:54;;;;;;;16.63;9.77;;;153.80;2252.80;;;;;;4937743;29;20386;-58
2022/02/15 04:49:20;;;;;;;18.75;10.18;;;153.70;2252.80;;;;;;4937829;29;20485;-59
2022/02/15 04:51:46;;;;;;;17.30;9.50;;;153.60;2252.80;;;;;;4937299;29;20465;-61
2022/02/15 04:54:11;;;;;;;19.83;9.98;;;153.60;2252.80;;;;;;4937428;29;20019;-56
2022/02/15 04:56:37;;;;;;;18.75;10.07;;;128.90;2252.80;;;;;;4937519;29;20043;-56
2022/02/15 04:59:03;;;;;;;18.75;10.07;;;128.90;2252.80;;;;;;4938097;29;20027;-57
2022/02/15 05:01:29;;;;;;;18.00;9.95;;;128.80;2252.80;;;;;;4937354;29;20042;-56
2022/02/15 05:03:55;;;;;;;18.23;10.18;;;128.70;2252.80;;;;;;4937117;29;20433;-61
2022/02/15 05:06:20;;;;;;;19.05;10.43;;;128.70;2252.80;;;;;;4937318;29;20023;-57
2022/02/15 05:08:46;;;;;;;18.20;10.20;;;128.50;2252.80;;;;;;4937099;29;20378;-60
2022/02/15 05:11:12;;;;;;;18.70;10.38;;;128.50;2252.80;;;;;;4937222;29;20059;-62
2022/02/15 05:13:38;;;;;;;19.23;10.55;;;128.60;2252.80;;;;;;4939148;29;20028;-58
2022/02/15 05:16:04;;;;;;;18.55;10.15;;;128.50;2252.80;;;;;;4937064;29;20492;-56
2022/02/15 05:18:30;;;;;;;17.77;9.63;;;128.50;2252.80;;;;;;4936713;29;20031;-60
2022/02/15 05:20:55;;;;;;;16.35;9.55;;;128.40;2252.80;;;;;;4936380;29;20034;-55
2022/02/15 05:23:21;;;;;;;17.42;9.70;;;128.40;2252.80;;;;;;4937403;29;20035;-58
2022/02/15 05:25:47;;;;;;;17.17;9.95;;;128.30;2252.80;;;;;;4937431;29;20028;-57
2022/02/15 05:28:13;;;;;;;17.42;9.85;;;128.30;2252.80;;;;;;4937550;29;20036;-57
2022/02/15 05:30:38;;;;;;;17.10;9.70;;;128.20;2252.80;;;;;;4933958;29;20028;-56
2022/02/15 05:33:04;;;;;;;21.90;10.45;;;128.30;2252.80;;;;;;4937141;29;20537;-61
2022/02/15 05:35:29;;;;;;;17.42;10.82;;;128.40;2252.80;;;;;;4937229;29;20053;-58
2022/02/15 05:37:56;;;;;;;19.02;10.23;;;128.40;2252.80;;;;;;4937160;29;20473;-59
2022/02/15 05:40:22;;;;;;;19.50;10.75;;;128.30;2252.80;;;;;;4937251;29;20031;-55
2022/02/15 05:42:47;;;;;;;17.80;10.32;;;128.30;2252.80;;;;;;4937123;29;20520;-57
2022/02/15 05:45:13;;;;;;;19.30;10.07;;;128.40;2252.80;;;;;;4937149;29;20481;-59
2022/02/15 05:47:40;;;;;;;34.53;17.88;;;128.40;2252.80;;;;;;4917593;29;20457;-59
2022/02/15 05:52:50;;;;;;;21.73;11.68;;;128.40;2252.80;;;;;;4935467;29;20099;-56
2022/02/15 05:55:16;;;;;;;31.20;17.05;;;128.40;2252.80;;;;;;4936136;29;20111;-58
2022/02/15 05:57:42;;;;;;;29.90;16.70;;;128.40;2252.80;;;;;;4936734;29;20616;-59
2022/02/15 06:00:10;;;;;;;23.17;12.57;;;128.40;2252.80;;;;;;4938126;29;20059;-59
2022/02/15 06:02:36;;;;;;;19.23;10.70;;;128.50;2252.80;;;;;;4938059;29;20035;-58
2022/02/15 06:05:02;;;;;;;17.85;10.70;;;128.50;2252.80;;;;;;4952203;29;20035;-59
2022/02/15 06:07:28;;;;;;;17.63;11.05;;;128.50;2252.80;;;;;;4957235;29;20035;-60
2022/02/15 06:09:54;;;;;;;17.00;10.63;;;128.50;2252.80;;;;;;4956753;29;20477;-60
2022/02/15 06:12:19;;;;;;;17.10;10.30;;;128.60;2252.80;;;;;;4956464;29;20078;-61
2022/02/15 06:14:47;;;;;;;18.20;10.07;;;128.80;2252.80;;;;;;4956296;29;20061;-62
2022/02/15 06:17:13;;;;;;;16.70;9.70;;;154.00;2252.80;;;;;;4956291;28;20496;-61
2022/02/15 06:19:38;;;;;;;16.30;9.30;;;154.50;2252.80;;;;;;4956263;29;20106;-56
2022/02/15 06:22:04;;;;;;;86.85;41.85;;;179.30;2252.80;;;;;;4943304;29;20163;-57
2022/02/15 06:24:30;;;;;;;66.78;29.20;;;179.70;2252.80;;;;;;4937476;29;20024;-60
2022/02/15 06:27:01;;;;;;;65.78;31.92;;;204.90;2252.80;;;;;;4937141;29;20384;-55
2022/02/15 06:29:31;;;;;;;49.20;31.38;;;205.40;2252.80;;;;;;4937548;29;20492;-58
2022/02/15 06:31:56;;;;;;;42.47;23.85;;;230.60;2252.80;;;;;;4937539;29;20480;-57
2022/02/15 06:34:23;;;;;;;35.13;21.65;;;230.80;2252.80;;;;;;4936635;29;20035;-58
2022/02/15 06:36:48;;;;;;;39.78;26.20;;;256.40;2073.60;;;;;;4937479;29;20106;-61
2022/02/15 06:39:14;;;;;;;50.55;38.55;;;281.90;1945.60;;;;;;4937725;29;20457;-60
2022/02/15 06:41:40;;;;;;;22.13;17.70;;;307.30;1817.60;;;;;;4937468;29;20038;-61
2022/02/15 06:44:05;;;;;;;18.13;14.48;;;307.80;1715.20;;;;;;4937482;29;20023;-58
2022/02/15 06:46:32;;;;;;;17.20;14.10;;;333.00;1664.00;;;;;;4937760;29;20036;-60
2022/02/15 06:48:58;;;;;;;19.45;14.02;;;333.50;1612.80;;;;;;4937613;29;20086;-59
2022/02/15 06:51:24;;;;;;;24.38;16.73;;;358.70;1561.60;;;;;;4937221;29;20465;-56
2022/02/15 06:53:49;;;;;;;23.35;14.73;;;384.00;1484.80;;;;;;4947462;29;20042;-57
2022/02/15 06:56:16;;;;;;;27.55;18.88;;;384.90;1382.40;;;;;;4955857;28;20050;-60
2022/02/15 06:58:41;;;;;;;28.55;18.70;;;410.10;1356.80;;;;;;4955850;29;20106;-63
2022/02/15 07:01:09;;;;;;;25.50;17.42;;;435.50;1305.60;;;;;;4954103;29;20122;-61
2022/02/15 07:03:36;;;;;;;22.25;15.60;;;435.90;1254.40;;;;;;4935580;29;20031;-63
2022/02/15 07:06:02;;;;;;;25.85;16.33;;;460.90;1254.40;;;;;;4935085;29;20055;-58
2022/02/15 07:08:27;;;;;;;30.98;18.55;;;461.00;1254.40;;;;;;4918156;29;20055;-58
2022/02/15 07:10:54;;;;;;;45.33;28.05;;;435.90;1254.40;;;;;;4936319;29;20047;-59
2022/02/15 07:13:27;;;;;;;59.28;35.42;;;435.30;1305.60;;;;;;4935209;29;20028;-66
2022/02/15 07:15:52;;;;;;;46.00;29.25;;;409.60;1382.40;;;;;;4935235;29;20040;-59
2022/02/15 07:18:19;;;;;;;44.20;28.92;;;384.00;1408.00;;;;;;4935121;29;20385;-59
2022/02/15 07:20:45;;;;;;;52.90;37.53;;;359.00;1484.80;;;;;;4936520;29;20101;-58
2022/02/15 07:23:14;;;;;;;26.77;18.27;;;384.00;1459.20;;;;;;4935647;29;20418;-57
2022/02/15 07:25:40;;;;;;;58.33;38.78;;;384.50;1433.60;;;;;;4936154;29;20035;-60
2022/02/15 07:28:06;;;;;;;25.40;18.60;;;410.00;1382.40;;;;;;4942295;29;20030;-60
2022/02/15 07:30:35;;;;;;;76.95;52.60;;;435.70;1305.60;;;;;;4951117;29;20028;-59
2022/02/15 07:33:02;;;;;;;36.00;25.67;;;461.50;1280.00;;;;;;4936077;29;20457;-59
2022/02/15 07:35:28;;;;;;;44.65;28.98;;;486.90;1203.20;;;;;;4936437;29;20032;-59
2022/02/15 07:37:53;;;;;;;24.75;17.70;;;512.30;1152.00;;;;;;4936357;29;20039;-60
2022/02/15 07:40:21;;;;;;;19.13;14.60;;;538.00;1100.80;;;;;;4935979;29;20107;-59
2022/02/15 07:42:50;;;;;;;17.48;14.65;;;538.50;1049.60;;;;;;4937149;29;20043;-60
2022/02/15 07:45:18;;;;;;;13.90;11.75;;;563.60;1049.60;;;;;;4957634;28;20031;-57
2022/02/15 07:47:46;;;;;;;16.55;11.85;;;563.90;1049.60;;;;;;4958935;29;20024;-57
2022/02/15 07:50:12;;;;;;;24.80;19.15;;;589.40;998.40;;;;;;4957697;28;20098;-58
2022/02/15 07:52:38;;;;;;;20.02;12.73;;;614.50;972.80;;;;;;4939616;29;20024;-59
2022/02/15 07:55:04;;;;;;;24.60;18.80;;;615.00;947.20;;;;;;4940136;29;20035;-60
2022/02/15 07:57:30;;;;;;;23.48;20.38;;;615.20;921.60;;;;;;4939129;29;20039;-57
2022/02/15 07:59:56;;;;;;;15.50;12.05;;;615.00;870.40;;;;;;4943575;29;20027;-57
2022/02/15 08:02:22;;;;;;;14.65;10.32;;;614.50;896.00;;;;;;4940149;29;20055;-57
2022/02/15 08:04:47;;;;;;;55.67;40.15;;;614.80;870.40;;;;;;4939462;29;20099;-58
2022/02/15 08:07:13;;;;;;;14.85;12.07;;;640.20;819.20;;;;;;4939556;29;20035;-57
2022/02/15 08:09:39;;;;;;;12.30;9.13;;;640.00;819.20;;;;;;4938611;29;20054;-59
2022/02/15 08:12:09;;;;;;;15.02;12.15;;;640.80;768.00;;;;;;4938993;29;20027;-58
2022/02/15 08:14:38;;;;;;;11.13;7.97;;;640.80;793.60;;;;;;4939573;29;20063;-59
2022/02/15 08:17:04;;;;;;;14.02;9.90;;;640.80;768.00;;;;;;4937822;29;20040;-60
2022/02/15 08:19:30;;;;;;;18.15;10.85;;;640.20;793.60;;;;;;4939126;29;20064;-59
2022/02/15 08:21:58;;;;;;;21.10;13.95;;;640.90;742.40;;;;;;4938509;29;20504;-61
2022/02/15 08:24:26;;;;;;;18.80;15.13;;;666.20;793.60;;;;;;4938054;29;20027;-60
2022/02/15 08:26:52;;;;;;;16.83;14.13;;;665.80;793.60;;;;;;4937695;29;20042;-60
2022/02/15 08:29:18;;;;;;;21.27;17.10;;;691.20;768.00;;;;;;4937744;29;20027;-58
2022/02/15 08:31:44;;;;;;;11.65;9.85;;;691.90;742.40;;;;;;4937735;29;20248;-60
2022/02/15 08:34:10;;;;;;;18.40;12.27;;;666.10;768.00;;;;;;4937853;29;20027;-59
2022/02/15 08:36:36;;;;;;;14.80;11.88;;;691.20;768.00;;;;;;4937903;29;20050;-60
2022/02/15 08:39:03;;;;;;;15.15;11.48;;;691.40;768.00;;;;;;4938744;29;20445;-58
2022/02/15 08:41:29;;;;;;;15.30;10.20;;;691.60;742.40;;;;;;4938339;29;20032;-59
2022/02/15 08:43:55;;;;;;;21.90;16.60;;;691.70;768.00;;;;;;4937109;29;20082;-60
2022/02/15 08:46:21;;;;;;;15.23;12.75;;;691.50;742.40;;;;;;4937634;29;20114;-60
2022/02/15 08:48:48;;;;;;;9.15;8.02;;;692.00;716.80;;;;;;4937933;29;20146;-59
2022/02/15 08:51:19;;;;;;;10.27;8.85;;;717.00;742.40;;;;;;4937636;29;20082;-57
2022/02/15 08:53:49;;;;;;;10.13;8.80;;;717.10;716.80;;;;;;4937328;29;20024;-58
2022/02/15 08:56:15;;;;;;;9.70;8.15;;;742.70;716.80;;;;;;4936549;29;20477;-58
2022/02/15 08:58:42;;;;;;;10.30;8.45;;;717.30;716.80;;;;;;4941153;29;20035;-58
2022/02/15 09:01:09;;;;;;;10.55;7.95;;;717.50;691.20;;;;;;4938187;28;20760;-57
2022/02/15 09:03:35;;;;;;;18.98;15.32;;;717.20;716.80;;;;;;4937049;29;20160;-58
2022/02/15 09:06:01;;;;;;;16.55;11.88;;;716.80;742.40;;;;;;4937041;29;20123;-60
2022/02/15 09:08:27;;;;;;;14.80;11.70;;;717.00;716.80;;;;;;4936230;29;20051;-58
2022/02/15 09:10:53;;;;;;;13.23;9.88;;;742.40;716.80;;;;;;4935810;29;20052;-60
2022/02/15 09:13:19;;;;;;;10.02;7.78;;;717.00;742.40;;;;;;4937547;29;20032;-58
2022/02/15 09:15:45;;;;;;;11.23;8.35;;;742.40;742.40;;;;;;4936821;29;20035;-61
2022/02/15 09:18:11;;;;;;;11.35;8.10;;;742.90;691.20;;;;;;4936845;29;20397;-59
2022/02/15 09:20:38;;;;;;;13.15;10.07;;;717.50;716.80;;;;;;4936465;29;20028;-60
2022/02/15 09:23:04;;;;;;;9.13;6.70;;;743.10;691.20;;;;;;4935761;29;20035;-58
2022/02/15 09:25:31;;;;;;;13.98;10.25;;;768.30;665.60;;;;;;4934223;29;20031;-60
2022/02/15 09:27:58;;;;;;;14.80;9.98;;;768.80;640.00;;;;;;4945227;29;20862;-55
2022/02/15 09:30:25;;;;;;;51.45;45.78;;;794.10;640.00;;;;;;4935744;29;20055;-57
2022/02/15 09:32:51;;;;;;;11.88;8.68;;;844.80;588.80;;;;;;4936814;29;20043;-60
2022/02/15 09:35:16;;;;;;;12.00;9.15;;;844.80;588.80;;;;;;4934822;29;20027;-61
2022/02/15 09:37:45;;;;;;;12.20;9.73;;;819.70;563.20;;;;;;4919360;29;20074;-60
2022/02/15 09:40:12;;;;;;;9.65;7.28;;;794.50;588.80;;;;;;4950831;29;20102;-60
2022/02/15 09:42:39;;;;;;;8.63;6.72;;;793.90;640.00;;;;;;4921544;29;20047;-57
2022/02/15 09:45:07;;;;;;;16.50;13.27;;;768.80;614.40;;;;;;4949559;29;20027;-57
2022/02/15 09:47:35;;;;;;;14.70;11.27;;;794.40;614.40;;;;;;4939812;29;20047;-60
2022/02/15 09:50:05;;;;;;;15.05;11.63;;;819.60;588.80;;;;;;4919982;29;20127;-57
2022/02/15 09:52:30;;;;;;;15.05;12.48;;;845.50;537.60;;;;;;4934305;29;20028;-57
2022/02/15 09:54:56;;;;;;;8.85;6.88;;;819.80;563.20;;;;;;4945815;29;20062;-57
2022/02/15 09:57:24;;;;;;;22.92;16.40;;;819.40;588.80;;;;;;4935368;29;20066;-57
2022/02/15 09:59:51;;;;;;;9.75;6.75;;;819.70;588.80;;;;;;4943640;29;20035;-56
2022/02/15 10:02:24;;;;;;;16.45;12.13;;;819.70;563.20;;;;;;4940962;29;20091;-57
2022/02/15 10:04:55;;;;;;;10.02;7.40;;;845.00;563.20;;;;;;4939403;29;20039;-60
2022/02/15 10:07:21;;;;;;;27.67;21.30;;;819.20;588.80;;;;;;4955176;28;20050;-57
2022/02/15 10:09:53;;;;;;;11.50;8.20;;;820.00;563.20;;;;;;4951428;29;20035;-56
2022/02/15 10:12:20;;;;;;;35.85;28.73;;;819.80;588.80;;;;;;4938889;29;20051;-57
2022/02/15 10:14:51;;;;;;;17.25;12.43;;;844.80;588.80;;;;;;4944460;29;20066;-57
2022/02/15 10:17:17;;;;;;;21.23;13.88;;;845.50;537.60;;;;;;4933088;29;20031;-56
2022/02/15 10:19:45;;;;;;;18.67;11.45;;;845.40;537.60;;;;;;4934834;29;20039;-58
2022/02/15 10:22:11;;;;;;;15.48;9.15;;;870.60;512.00;;;;;;4925263;29;20386;-56
2022/02/15 10:24:39;;;;;;;14.68;11.10;;;845.30;563.20;;;;;;4943445;29;20082;-56
2022/02/15 10:27:10;;;;;;;13.73;11.07;;;820.10;537.60;;;;;;4935582;29;20044;-59
2022/02/15 10:29:38;;;;;;;13.48;9.10;;;845.10;563.20;;;;;;4942658;29;20035;-54
2022/02/15 10:32:13;;;;;;;11.20;9.45;;;845.70;537.60;;;;;;4955367;29;20015;-58
2022/02/15 10:34:56;;;;;;;10.77;7.82;;;870.60;537.60;;;;;;4916580;29;20044;-58
2022/02/15 10:37:26;;;;;;;9.43;6.97;;;845.30;563.20;;;;;;4918972;29;20076;-55
2022/02/15 10:39:56;;;;;;;9.18;7.30;;;845.40;537.60;;;;;;4935810;29;20028;-57
2022/02/15 10:42:23;;;;;;;8.10;5.75;;;845.20;563.20;;;;;;4936149;29;20067;-56
2022/02/15 10:45:01;;;;;;;9.95;7.70;;;845.20;537.60;;;;;;4935741;29;20032;-58
2022/02/15 10:47:31;;;;;;;17.42;14.75;;;820.10;537.60;;;;;;4935862;29;20039;-58
2022/02/15 10:49:59;;;;;;;10.45;7.30;;;820.00;563.20;;;;;;4935268;29;20039;-58
2022/02/15 10:52:26;;;;;;;8.05;5.93;;;845.10;588.80;;;;;;4933775;29;20066;-55
2022/02/15 10:54:52;;;;;;;12.38;8.80;;;845.60;537.60;;;;;;4938657;29;20377;-59
2022/02/15 10:57:19;;;;;;;8.70;7.10;;;870.80;512.00;;;;;;4943855;29;20041;-58
2022/02/15 10:59:49;;;;;;;8.73;4.38;;;870.40;537.60;;;;;;4934530;29;20395;-58
2022/02/15 11:02:25;;;;;;;8.18;5.85;;;870.40;512.00;;;;;;4952311;29;20031;-56
2022/02/15 11:04:51;;;;;;;7.65;4.63;;;870.70;512.00;;;;;;4935516;29;20091;-57
2022/02/15 11:07:24;;;;;;;7.53;5.40;;;870.60;486.40;;;;;;4935165;29;20044;-57
2022/02/15 11:10:02;;;;;;;24.27;20.90;;;871.00;486.40;;;;;;4935217;29;20065;-57
2022/02/15 11:12:43;;;;;;;7.97;6.25;;;870.60;486.40;;;;;;4937643;29;20060;-57
2022/02/15 11:15:11;;;;;;;10.25;8.10;;;870.80;486.40;;;;;;4942021;29;20119;-54
2022/02/15 11:17:51;;;;;;;7.90;6.30;;;896.70;435.20;;;;;;4935408;29;20031;-55
2022/02/15 11:20:20;;;;;;;7.18;6.00;;;921.80;460.80;;;;;;4934825;29;20114;-56
2022/02/15 11:22:53;;;;;;;8.25;6.53;;;896.70;435.20;;;;;;4934826;29;20026;-56
2022/02/15 11:25:37;;;;;;;11.15;7.70;;;921.60;460.80;;;;;;4935435;29;20032;-56
2022/02/15 11:28:11;;;;;;;8.55;6.75;;;922.20;435.20;;;;;;4935500;29;20405;-56
2022/02/15 11:30:54;;;;;;;11.73;8.52;;;896.40;460.80;;;;;;4931874;29;20039;-57
2022/02/15 11:33:26;;;;;;;10.43;6.80;;;921.70;460.80;;;;;;4933639;29;20389;-56
2022/02/15 11:35:52;;;;;;;11.18;8.25;;;922.00;435.20;;;;;;4934712;29;20400;-57
2022/02/15 11:38:18;;;;;;;9.90;8.13;;;921.60;435.20;;;;;;4935514;29;20363;-56
2022/02/15 11:41:00;;;;;;;8.10;5.22;;;947.60;384.00;;;;;;4932830;29;20042;-57
2022/02/15 11:43:27;;;;;;;8.55;5.85;;;947.80;384.00;;;;;;4931134;29;20031;-56
2022/02/15 11:45:52;;;;;;;10.23;7.13;;;948.00;384.00;;;;;;4942638;29;20047;-56
2022/02/15 11:48:18;;;;;;;11.82;7.68;;;947.40;409.60;;;;;;4932382;29;20471;-55
2022/02/15 11:50:48;;;;;;;7.38;5.55;;;947.90;384.00;;;;;;4934270;29;20532;-57
2022/02/15 11:53:16;;;;;;;8.50;4.72;;;922.30;409.60;;;;;;4935367;29;20362;-56
2022/02/15 11:55:43;;;;;;;9.73;5.53;;;922.20;409.60;;;;;;4934204;29;20046;-56
2022/02/15 11:58:10;;;;;;;9.98;8.18;;;922.20;409.60;;;;;;4941671;29;20389;-57
2022/02/15 12:00:38;;;;;;;9.27;6.97;;;922.20;409.60;;;;;;4953862;29;20428;-56
2022/02/15 12:03:04;;;;;;;13.82;10.07;;;921.70;435.20;;;;;;4929289;29;20043;-56
2022/02/15 12:05:34;;;;;;;15.85;10.63;;;871.20;460.80;;;;;;4933431;29;20153;-57
2022/02/15 12:08:00;;;;;;;13.20;6.68;;;896.20;435.20;;;;;;4934098;29;20059;-56
2022/02/15 12:10:36;;;;;;;6.70;3.70;;;896.20;435.20;;;;;;4942961;29;20047;-57
2022/02/15 12:13:03;;;;;;;9.57;5.65;;;870.80;460.80;;;;;;4935935;29;20027;-57
2022/02/15 12:15:34;;;;;;;7.85;5.97;;;896.80;409.60;;;;;;4935664;29;20102;-57